createdAt,value
2022-12-04T00:01:57.014Z,3.08
2022-12-04T00:04:42.245Z,2.62
2022-12-04T00:07:25.964Z,2.60
2022-12-04T00:10:11.176Z,2.66
2022-12-04T00:12:56.066Z,2.82
2022-12-04T00:15:43.235Z,2.96
2022-12-04T00:18:27.102Z,3.20
2022-12-04T00:21:14.236Z,3.18
2022-12-04T00:23:58.120Z,3.58
2022-12-04T00:26:41.921Z,3.37
2022-12-04T00:29:25.699Z,3.42
2022-12-04T00:32:09.503Z,3.65
2022-12-04T00:34:53.706Z,3.60
2022-12-04T00:37:38.913Z,4.04
2022-12-04T00:40:22.761Z,4.03
2022-12-04T00:43:06.506Z,3.85
2022-12-04T00:45:50.719Z,3.60
2022-12-04T00:48:34.964Z,3.34
2022-12-04T00:51:21.094Z,3.25
2022-12-04T00:54:06.299Z,3.55
2022-12-04T00:56:50.068Z,3.72
2022-12-04T00:59:33.733Z,3.55
2022-12-04T01:02:17.661Z,4.05
2022-12-04T01:05:02.336Z,3.78
2022-12-04T01:07:47.681Z,3.39
2022-12-04T01:10:32.818Z,3.06
2022-12-04T01:13:16.569Z,3.02
2022-12-04T01:16:00.257Z,3.20
2022-12-04T01:18:44.106Z,3.40
2022-12-04T01:21:27.880Z,3.21
2022-12-04T01:24:11.707Z,3.13
2022-12-04T01:26:56.850Z,2.66
2022-12-04T01:29:40.578Z,2.68
2022-12-04T01:32:24.358Z,2.91
2022-12-04T01:35:08.902Z,3.02
2022-12-04T01:37:53.014Z,3.16
2022-12-04T01:40:36.853Z,2.65
2022-12-04T01:43:22.620Z,3.16
2022-12-04T01:46:07.730Z,3.32
2022-12-04T01:48:54.067Z,3.12
2022-12-04T01:51:43.843Z,3.01
2022-12-04T01:54:31.443Z,3.29
2022-12-04T01:57:17.569Z,3.46
2022-12-04T02:00:08.192Z,3.18
2022-12-04T02:02:52.159Z,2.97
2022-12-04T02:05:36.090Z,2.78
2022-12-04T02:08:20.496Z,2.84
2022-12-04T02:11:13.532Z,3.01
2022-12-04T02:14:26.543Z,3.35
2022-12-04T02:17:21.761Z,3.77
2022-12-04T02:20:16.257Z,3.22
2022-12-04T02:23:24.404Z,3.84
2022-12-04T02:26:31.759Z,3.54
2022-12-04T02:29:25.022Z,3.69
2022-12-04T02:32:18.707Z,4.03
2022-12-04T02:35:07.496Z,3.71
2022-12-04T02:37:55.995Z,3.87
2022-12-04T02:40:46.573Z,4.04
2022-12-04T02:43:38.090Z,3.62
2022-12-04T02:46:29.749Z,3.86
2022-12-04T02:49:18.766Z,3.57
2022-12-04T02:52:04.599Z,3.82
2022-12-04T02:54:55.408Z,3.79
2022-12-04T02:57:44.434Z,3.98
2022-12-04T03:00:30.386Z,3.82
2022-12-04T03:03:21.870Z,4.01
2022-12-04T03:06:09.277Z,3.90
2022-12-04T03:08:59.824Z,3.78
2022-12-04T03:11:48.424Z,3.93
2022-12-04T03:14:36.228Z,3.98
2022-12-04T03:17:24.281Z,3.86
2022-12-04T03:20:14.462Z,3.85
2022-12-04T03:23:03.677Z,3.84
2022-12-04T03:25:54.435Z,3.66
2022-12-04T03:28:47.953Z,3.43
2022-12-04T03:31:40.715Z,3.49
2022-12-04T03:34:29.091Z,3.31
2022-12-04T03:37:18.468Z,3.32
2022-12-04T03:40:08.229Z,3.48
2022-12-04T03:43:01.220Z,3.78
2022-12-04T03:45:49.429Z,3.08
2022-12-04T03:48:41.020Z,2.29
2022-12-04T03:51:33.498Z,3.82
2022-12-04T03:54:23.880Z,3.78
2022-12-04T03:57:15.638Z,3.54
2022-12-04T04:00:06.213Z,3.47
2022-12-04T04:02:54.950Z,3.51
2022-12-04T04:05:43.129Z,3.49
2022-12-04T04:08:34.229Z,3.80
2022-12-04T04:11:24.870Z,3.13
2022-12-04T04:14:30.662Z,3.83
2022-12-04T04:17:38.648Z,3.64
2022-12-04T04:20:45.541Z,3.66
2022-12-04T04:23:50.150Z,3.49
2022-12-04T04:26:40.352Z,3.38
2022-12-04T04:29:24.099Z,3.18
2022-12-04T04:32:15.254Z,3.17
2022-12-04T04:35:04.877Z,3.28
2022-12-04T04:37:56.616Z,3.32
2022-12-04T04:40:47.886Z,3.56
2022-12-04T04:43:38.223Z,3.14
2022-12-04T04:46:26.805Z,3.32
2022-12-04T04:49:13.568Z,3.16
2022-12-04T04:51:58.570Z,3.65
2022-12-04T04:54:43.112Z,3.90
2022-12-04T04:57:28.617Z,3.87
2022-12-04T05:00:16.929Z,3.23
2022-12-04T05:03:00.902Z,3.18
2022-12-04T05:05:44.758Z,3.37
2022-12-04T05:08:28.572Z,3.20
2022-12-04T05:11:14.182Z,2.85
2022-12-04T05:13:58.071Z,2.90
2022-12-04T05:16:43.302Z,2.98
2022-12-04T05:19:44.746Z,2.70
2022-12-04T05:22:30.443Z,2.90
2022-12-04T05:25:14.265Z,3.03
2022-12-04T05:27:58.363Z,2.91
2022-12-04T05:30:42.715Z,2.75
2022-12-04T05:33:28.113Z,2.82
2022-12-04T05:36:13.326Z,2.83
2022-12-04T05:38:57.084Z,2.91
2022-12-04T05:41:40.973Z,2.55
2022-12-04T05:44:25.175Z,2.88
2022-12-04T05:47:09.205Z,2.80
2022-12-04T05:49:54.685Z,2.90
2022-12-04T05:52:38.942Z,3.13
2022-12-04T05:55:22.722Z,3.15
2022-12-04T05:58:06.596Z,2.96
2022-12-04T06:00:50.316Z,3.07
2022-12-04T06:03:34.161Z,3.16
2022-12-04T06:06:22.671Z,3.12
2022-12-04T06:09:08.423Z,3.18
2022-12-04T06:11:52.115Z,3.23
2022-12-04T06:14:39.539Z,3.40
2022-12-04T06:17:23.873Z,3.37
2022-12-04T06:20:11.774Z,3.66
2022-12-04T06:22:57.189Z,3.52
2022-12-04T06:25:40.970Z,3.44
2022-12-04T06:28:24.710Z,3.53
2022-12-04T06:31:11.159Z,3.72
2022-12-04T06:33:55.458Z,3.62
2022-12-04T06:36:39.274Z,3.86
2022-12-04T06:39:24.424Z,3.68
2022-12-04T06:42:08.488Z,3.83
2022-12-04T06:44:52.107Z,3.66
2022-12-04T06:47:36.379Z,3.73
2022-12-04T06:50:20.376Z,3.87
2022-12-04T06:53:08.307Z,3.40
2022-12-04T06:55:53.903Z,3.56
2022-12-04T06:58:38.742Z,3.83
2022-12-04T07:01:24.438Z,3.87
2022-12-04T07:04:08.388Z,3.78
2022-12-04T07:06:52.312Z,3.80
2022-12-04T07:09:36.125Z,3.72
2022-12-04T07:12:21.323Z,3.78
2022-12-04T07:15:05.750Z,3.40
2022-12-04T07:17:49.645Z,3.87
2022-12-04T07:20:33.541Z,3.79
2022-12-04T07:23:17.358Z,3.76
2022-12-04T07:26:05.820Z,3.83
2022-12-04T07:28:51.545Z,3.82
2022-12-04T07:31:35.963Z,3.98
2022-12-04T07:34:20.053Z,4.06
2022-12-04T07:37:04.385Z,4.08
2022-12-04T07:39:48.212Z,3.99
2022-12-04T07:42:31.952Z,3.98
2022-12-04T07:45:17.294Z,3.98
2022-12-04T07:48:01.130Z,4.41
2022-12-04T07:50:45.762Z,4.03
2022-12-04T07:53:29.535Z,4.23
2022-12-04T07:56:14.353Z,4.38
2022-12-04T07:58:59.557Z,4.16
2022-12-04T08:01:45.083Z,4.41
2022-12-04T08:04:29.049Z,4.61
2022-12-04T08:07:12.903Z,4.26
2022-12-04T08:09:57.096Z,4.49
2022-12-04T08:12:41.259Z,4.42
2022-12-04T08:15:25.072Z,4.20
2022-12-04T08:18:10.899Z,4.70
2022-12-04T08:20:55.197Z,4.45
2022-12-04T08:23:39.935Z,4.51
2022-12-04T08:26:26.015Z,4.93
2022-12-04T08:29:11.183Z,4.84
2022-12-04T08:31:55.999Z,4.79
2022-12-04T08:34:41.784Z,4.65
2022-12-04T08:37:29.307Z,4.83
2022-12-04T08:40:18.651Z,4.46
2022-12-04T08:43:07.665Z,4.73
2022-12-04T08:45:59.220Z,4.87
2022-12-04T08:48:45.140Z,4.99
2022-12-04T08:51:39.010Z,4.64
2022-12-04T08:54:25.722Z,4.93
2022-12-04T08:57:10.584Z,5.03
2022-12-04T08:59:55.684Z,5.04
2022-12-04T09:02:44.913Z,5.14
2022-12-04T09:05:32.115Z,4.96
2022-12-04T09:08:27.189Z,5.13
2022-12-04T09:11:16.111Z,4.89
2022-12-04T09:14:07.930Z,5.03
2022-12-04T09:16:53.460Z,5.28
2022-12-04T09:19:44.031Z,5.27
2022-12-04T09:22:51.334Z,5.24
2022-12-04T09:25:41.354Z,5.50
2022-12-04T09:31:26.566Z,5.40
2022-12-04T09:34:11.728Z,5.30
2022-12-04T09:36:56.951Z,5.23
2022-12-04T09:39:42.947Z,5.45
2022-12-04T09:42:38.036Z,5.79
2022-12-04T09:45:26.236Z,5.37
2022-12-04T09:48:14.581Z,6.01
2022-12-04T09:51:00.750Z,6.09
2022-12-04T09:53:49.701Z,5.75
2022-12-04T09:56:35.263Z,5.86
2022-12-04T09:59:25.619Z,6.07
2022-12-04T10:02:30.735Z,6.04
2022-12-04T10:05:22.720Z,6.20
2022-12-04T10:08:17.550Z,6.03
2022-12-04T10:11:11.432Z,6.16
2022-12-04T10:14:16.601Z,6.23
2022-12-04T10:17:32.478Z,6.47
2022-12-04T10:20:30.045Z,6.25
2022-12-04T10:23:25.454Z,6.14
2022-12-04T10:26:18.100Z,6.29
2022-12-04T10:29:06.436Z,6.18
2022-12-04T10:31:54.485Z,6.51
2022-12-04T10:34:45.635Z,6.52
2022-12-04T10:37:37.458Z,6.47
2022-12-04T10:40:28.953Z,6.46
2022-12-04T10:43:20.600Z,6.43
2022-12-04T10:46:07.253Z,6.66
2022-12-04T10:48:55.738Z,6.74
2022-12-04T10:51:44.708Z,6.48
2022-12-04T10:54:35.817Z,5.86
2022-12-04T10:57:21.232Z,6.15
2022-12-04T11:00:26.292Z,6.23
2022-12-04T11:03:24.714Z,6.42
2022-12-04T11:06:12.738Z,6.44
2022-12-04T11:09:03.389Z,6.76
2022-12-04T11:11:48.914Z,6.53
2022-12-04T11:14:34.378Z,6.50
2022-12-04T11:17:22.616Z,6.63
2022-12-04T11:20:15.093Z,6.51
2022-12-04T11:23:01.664Z,6.40
2022-12-04T11:25:51.725Z,6.32
2022-12-04T11:28:42.675Z,6.54
2022-12-04T11:31:28.503Z,6.56
2022-12-04T11:34:21.178Z,7.07
2022-12-04T11:37:08.879Z,6.47
2022-12-04T11:39:56.458Z,6.59
2022-12-04T11:42:43.377Z,6.75
2022-12-04T11:45:27.748Z,6.79
2022-12-04T11:48:18.359Z,6.76
2022-12-04T11:51:19.071Z,6.54
2022-12-04T11:54:12.379Z,6.42
2022-12-04T11:57:09.155Z,6.68
2022-12-04T12:00:10.050Z,6.53
2022-12-04T12:03:08.690Z,6.35
2022-12-04T12:06:09.288Z,6.35
2022-12-04T12:09:10.769Z,6.19
2022-12-04T12:12:03.312Z,6.15
2022-12-04T12:15:00.515Z,6.52
2022-12-04T12:17:52.842Z,6.33
2022-12-04T12:20:43.812Z,6.56
2022-12-04T12:23:45.760Z,6.19
2022-12-04T12:26:39.860Z,6.61
2022-12-04T12:29:41.042Z,6.29
2022-12-04T12:32:39.605Z,6.01
2022-12-04T12:35:32.097Z,5.94
2022-12-04T12:38:21.931Z,6.25
2022-12-04T12:41:13.169Z,6.26
2022-12-04T12:44:04.975Z,6.34
2022-12-04T12:46:54.292Z,6.01
2022-12-04T12:49:48.607Z,6.08
2022-12-04T12:52:41.766Z,5.75
2022-12-04T12:55:30.591Z,6.05
2022-12-04T12:58:19.003Z,6.22
2022-12-04T13:01:10.413Z,5.64
2022-12-04T13:04:07.224Z,5.58
2022-12-04T13:07:00.954Z,5.85
2022-12-04T13:09:54.071Z,6.18
2022-12-04T13:12:47.204Z,5.77
2022-12-04T13:15:40.520Z,5.74
2022-12-04T13:18:30.244Z,6.04
2022-12-04T13:21:30.853Z,6.19
2022-12-04T13:24:39.662Z,6.13
2022-12-04T13:27:34.866Z,5.75
2022-12-04T13:30:22.689Z,5.89
2022-12-04T13:33:53.604Z,5.89
2022-12-04T13:36:58.366Z,6.07
2022-12-04T13:40:28.966Z,5.96
2022-12-04T13:43:27.407Z,6.24
2022-12-04T13:46:30.987Z,5.87
2022-12-04T13:49:29.147Z,6.08
2022-12-04T13:52:25.838Z,5.91
2022-12-04T13:55:26.732Z,6.13
2022-12-04T13:58:30.735Z,6.18
2022-12-04T14:01:28.173Z,5.87
2022-12-04T14:04:26.601Z,6.01
2022-12-04T14:07:27.328Z,6.09
2022-12-04T14:10:30.191Z,6.33
2022-12-04T14:13:22.316Z,6.52
2022-12-04T14:16:21.392Z,6.54
2022-12-04T14:19:08.599Z,6.18
2022-12-04T14:21:54.368Z,6.11
2022-12-04T14:24:40.077Z,6.27
2022-12-04T14:27:35.250Z,6.24
2022-12-04T14:30:21.985Z,6.33
2022-12-04T14:33:13.585Z,6.02
2022-12-04T14:36:03.899Z,6.16
2022-12-04T14:38:50.508Z,6.36
2022-12-04T14:41:34.567Z,6.35
2022-12-04T14:44:26.908Z,6.03
2022-12-04T14:47:23.410Z,6.40
2022-12-04T14:50:29.476Z,5.85
2022-12-04T14:53:25.131Z,5.94
2022-12-04T14:56:25.897Z,5.97
2022-12-04T14:59:18.028Z,6.01
2022-12-04T15:02:02.148Z,5.78
2022-12-04T15:04:47.711Z,6.14
2022-12-04T15:07:33.691Z,6.32
2022-12-04T15:10:41.509Z,6.29
2022-12-04T15:13:29.280Z,6.19
2022-12-04T15:16:18.674Z,6.24
2022-12-04T15:19:02.811Z,5.76
2022-12-04T15:21:46.860Z,5.58
2022-12-04T15:24:32.654Z,5.80
2022-12-04T15:27:20.709Z,5.48
2022-12-04T15:30:05.785Z,5.30
2022-12-04T15:32:53.102Z,5.77
2022-12-04T15:35:39.161Z,5.34
2022-12-04T15:38:23.400Z,5.65
2022-12-04T15:41:26.213Z,5.30
2022-12-04T15:44:24.098Z,5.36
2022-12-04T15:47:18.955Z,5.59
2022-12-04T15:50:10.793Z,5.21
2022-12-04T15:52:59.894Z,5.29
2022-12-04T15:55:52.410Z,5.27
2022-12-04T15:58:40.028Z,5.54
2022-12-04T16:01:24.256Z,4.91
2022-12-04T16:04:22.551Z,5.22
2022-12-04T16:07:21.873Z,4.91
2022-12-04T16:10:22.740Z,5.10
2022-12-04T16:13:07.363Z,5.06
2022-12-04T16:15:52.901Z,4.73
2022-12-04T16:18:37.021Z,4.81
2022-12-04T16:21:24.297Z,4.92
2022-12-04T16:24:11.704Z,4.61
2022-12-04T16:26:57.217Z,4.61
2022-12-04T16:29:41.229Z,4.82
2022-12-04T16:32:32.077Z,4.88
2022-12-04T16:35:17.853Z,4.99
2022-12-04T16:38:01.798Z,4.97
2022-12-04T16:40:46.940Z,4.97
2022-12-04T16:43:30.906Z,4.44
2022-12-04T16:46:16.975Z,4.58
2022-12-04T16:49:07.280Z,4.84
2022-12-04T16:51:51.713Z,4.62
2022-12-04T16:54:35.955Z,4.92
2022-12-04T16:57:19.853Z,4.60
2022-12-04T17:00:03.945Z,4.58
2022-12-04T17:02:48.504Z,4.51
2022-12-04T17:05:35.934Z,4.61
2022-12-04T17:08:20.158Z,4.79
2022-12-04T17:11:04.269Z,4.67
2022-12-04T17:13:48.344Z,4.59
2022-12-04T17:16:32.337Z,4.89
2022-12-04T17:19:16.761Z,4.75
2022-12-04T17:22:02.519Z,4.59
2022-12-04T17:24:52.881Z,4.44
2022-12-04T17:27:38.848Z,4.83
2022-12-04T17:30:22.911Z,4.94
2022-12-04T17:33:07.303Z,4.65
2022-12-04T17:35:50.992Z,4.60
2022-12-04T17:38:37.852Z,4.79
2022-12-04T17:41:21.610Z,4.68
2022-12-04T17:44:05.859Z,4.67
2022-12-04T17:46:50.334Z,4.49
2022-12-04T17:49:34.820Z,4.83
2022-12-04T17:52:22.507Z,4.75
2022-12-04T17:55:09.071Z,4.80
2022-12-04T17:57:53.326Z,4.85
2022-12-04T18:00:38.179Z,4.87
2022-12-04T18:03:22.270Z,4.76
2022-12-04T18:06:13.629Z,4.82
2022-12-04T18:08:58.373Z,4.91
2022-12-04T18:11:45.695Z,4.80
2022-12-04T18:14:30.917Z,5.02
2022-12-04T18:17:17.750Z,4.56
2022-12-04T18:20:05.009Z,4.63
2022-12-04T18:22:49.747Z,4.44
2022-12-04T18:25:34.042Z,4.48
2022-12-04T18:28:19.570Z,4.40
2022-12-04T18:31:05.337Z,4.25
2022-12-04T18:33:49.493Z,4.50
2022-12-04T18:36:33.781Z,4.53
2022-12-04T18:39:19.971Z,4.57
2022-12-04T18:42:03.872Z,4.55
2022-12-04T18:44:49.692Z,4.47
2022-12-04T18:47:33.542Z,4.74
2022-12-04T18:50:17.756Z,4.44
2022-12-04T18:53:02.000Z,4.50
2022-12-04T18:55:45.784Z,4.67
2022-12-04T18:58:29.646Z,4.44
2022-12-04T19:01:16.748Z,4.49
2022-12-04T19:04:03.166Z,4.52
2022-12-04T19:06:50.630Z,4.19
2022-12-04T19:10:09.573Z,4.30
2022-12-04T19:12:39.903Z,4.31
2022-12-04T19:15:24.026Z,4.29
2022-12-04T19:18:09.403Z,4.32
2022-12-04T19:20:53.613Z,4.20
2022-12-04T19:23:37.517Z,4.29
2022-12-04T19:26:22.732Z,4.09
2022-12-04T19:29:08.625Z,4.22
2022-12-04T19:31:57.740Z,4.28
2022-12-04T19:34:44.673Z,4.16
2022-12-04T19:37:29.031Z,4.41
2022-12-04T19:40:14.752Z,4.39
2022-12-04T19:43:02.818Z,4.23
2022-12-04T19:45:49.473Z,4.31
2022-12-04T19:48:33.683Z,4.35
2022-12-04T19:51:20.308Z,4.19
2022-12-04T19:54:04.510Z,4.29
2022-12-04T19:56:52.655Z,4.33
2022-12-04T19:59:39.507Z,4.10
2022-12-04T20:02:25.852Z,4.31
2022-12-04T20:05:10.546Z,4.32
2022-12-04T20:10:40.969Z,4.31
2022-12-04T20:13:25.696Z,4.36
2022-12-04T20:16:12.088Z,3.96
2022-12-04T20:18:56.181Z,4.27
2022-12-04T20:21:40.222Z,4.28
2022-12-04T20:24:25.432Z,4.12
2022-12-04T20:27:09.292Z,4.20
2022-12-04T20:29:53.909Z,3.96
2022-12-04T20:32:37.887Z,4.18
2022-12-04T20:35:21.622Z,4.08
2022-12-04T20:38:05.973Z,4.11
2022-12-04T20:40:51.132Z,4.13
2022-12-04T20:43:35.241Z,4.17
2022-12-04T20:46:20.946Z,4.22
2022-12-04T20:49:07.117Z,4.21
2022-12-04T20:51:51.823Z,4.10
2022-12-04T20:54:41.381Z,4.22
2022-12-04T20:57:26.815Z,4.03
2022-12-04T21:00:11.632Z,4.13
2022-12-04T21:02:55.465Z,4.15
2022-12-04T21:05:39.462Z,4.14
2022-12-04T21:08:43.212Z,4.10
2022-12-04T21:11:30.076Z,4.23
2022-12-04T21:14:34.484Z,4.12
2022-12-04T21:17:20.489Z,4.09
2022-12-04T21:20:07.875Z,4.07
2022-12-04T21:22:52.108Z,4.08
2022-12-04T21:25:37.241Z,3.99
2022-12-04T21:28:21.159Z,4.04
2022-12-04T21:31:07.489Z,4.13
2022-12-04T21:33:51.617Z,4.16
2022-12-04T21:36:35.816Z,4.23
2022-12-04T21:39:19.817Z,4.18
2022-12-04T21:42:21.225Z,4.19
2022-12-04T21:45:07.664Z,4.15
2022-12-04T21:47:54.783Z,4.17
2022-12-04T21:50:38.794Z,3.99
2022-12-04T21:53:22.889Z,4.22
2022-12-04T21:56:07.478Z,4.21
2022-12-04T21:58:51.536Z,4.16
2022-12-04T22:01:35.473Z,4.24
2022-12-04T22:04:21.379Z,4.17
2022-12-04T22:07:05.057Z,4.20
2022-12-04T22:09:48.876Z,4.16
2022-12-04T22:12:49.028Z,4.25
2022-12-04T22:15:39.152Z,4.21
2022-12-04T22:18:23.189Z,4.25
2022-12-04T22:21:09.983Z,4.21
2022-12-04T22:23:56.708Z,4.17
2022-12-04T22:26:40.586Z,4.24
2022-12-04T22:29:49.096Z,4.27
2022-12-04T22:32:28.227Z,4.17
2022-12-04T22:35:12.112Z,4.13
2022-12-04T22:37:57.157Z,4.17
2022-12-04T22:40:41.074Z,4.03
2022-12-04T22:43:24.829Z,4.12
2022-12-04T22:46:08.766Z,4.05
2022-12-04T22:48:52.530Z,3.96
2022-12-04T22:51:36.370Z,3.95
2022-12-04T22:54:21.532Z,4.03
2022-12-04T22:57:05.538Z,4.00
2022-12-04T22:59:49.433Z,3.91
2022-12-04T23:02:34.257Z,4.01
2022-12-04T23:05:18.217Z,4.10
2022-12-04T23:08:02.141Z,4.00
2022-12-04T23:10:47.235Z,4.11
2022-12-04T23:13:31.025Z,4.02
2022-12-04T23:16:19.837Z,4.03
2022-12-04T23:19:05.016Z,4.10
2022-12-04T23:21:56.601Z,3.81
2022-12-04T23:24:41.587Z,3.72
2022-12-04T23:27:27.158Z,4.11
2022-12-04T23:30:11.345Z,3.89
2022-12-04T23:32:55.299Z,4.07
2022-12-04T23:35:39.266Z,4.14
2022-12-04T23:38:24.324Z,3.86
2022-12-04T23:41:12.001Z,4.11
2022-12-04T23:43:57.854Z,4.19
2022-12-04T23:46:42.072Z,4.11
2022-12-04T23:49:26.092Z,3.73
2022-12-04T23:52:10.105Z,3.79
2022-12-04T23:54:54.166Z,3.87
2022-12-04T23:57:38.270Z,3.79
